TimePST,TemperatureF,Dew PointF,Humidity,Sea Level PressureIn,VisibilityMPH,Wind Direction,Wind SpeedMPH,Gust SpeedMPH,PrecipitationIn,Events,Conditions,WindDirDegrees,DateUTC
12:52 AM,51.1,42.1,71,29.79,10.0,NE,5.8,-,N/A,,Clear,50,2012-12-13 08:52:00
1:52 AM,48.9,41.0,74,29.78,10.0,NNE,3.5,-,N/A,,Clear,30,2012-12-13 09:52:00
2:52 AM,48.9,42.1,77,29.77,10.0,West,4.6,-,N/A,,Clear,270,2012-12-13 10:52:00
3:52 AM,50.0,42.1,74,29.75,10.0,North,6.9,-,N/A,,Clear,10,2012-12-13 11:52:00
4:52 AM,51.1,42.1,71,29.75,10.0,NNW,3.5,-,N/A,,Clear,330,2012-12-13 12:52:00
5:52 AM,48.9,42.1,77,29.75,10.0,Variable,3.5,-,N/A,,Clear,0,2012-12-13 13:52:00
6:52 AM,48.9,42.1,77,29.76,10.0,NNE,5.8,-,N/A,,Partly Cloudy,20,2012-12-13 14:52:00
7:52 AM,54.0,45.0,72,29.78,10.0,East,3.5,-,0.00,Rain,Light Rain,100,2012-12-13 15:52:00
8:52 AM,55.9,48.0,75,29.80,10.0,Calm,Calm,-,0.00,Rain,Light Rain,0,2012-12-13 16:52:00
9:52 AM,57.0,52.0,83,29.82,8.0,Calm,Calm,-,0.01,Rain,Light Rain,0,2012-12-13 17:52:00
10:52 AM,57.0,53.1,87,29.82,9.0,Calm,Calm,-,0.01,Rain,Light Rain,0,2012-12-13 18:52:00
11:52 AM,57.0,57.0,100,29.80,8.0,Calm,Calm,-,0.04,Rain,Light Rain,0,2012-12-13 19:52:00
12:52 PM,57.0,57.0,100,29.78,10.0,Calm,Calm,-,0.01,Rain,Light Rain,0,2012-12-13 20:52:00
1:52 PM,57.0,54.0,89,29.75,10.0,SE,4.6,-,0.00,,Overcast,130,2012-12-13 21:52:00
4:52 PM,54.0,54.0,100,29.73,10.0,Calm,Calm,-,0.02,Rain,Light Rain,0,2012-12-14 00:52:00
5:52 PM,54.0,54.0,100,29.73,10.0,Calm,Calm,-,0.01,Rain,Light Rain,0,2012-12-14 01:52:00
6:52 PM,54.0,54.0,100,29.70,9.0,Calm,Calm,-,0.02,Rain,Light Rain,0,2012-12-14 02:52:00
7:52 PM,53.1,53.1,100,29.69,8.0,NW,4.6,-,0.00,,Clear,320,2012-12-14 03:52:00
8:52 PM,53.1,53.1,100,29.68,7.0,NNE,4.6,-,N/A,,Clear,30,2012-12-14 04:52:00
10:52 PM,55.0,51.1,86,29.67,10.0,North,16.1,-,N/A,,Mostly Cloudy,350,2012-12-14 06:52:00
11:52 PM,53.1,46.9,80,29.66,10.0,SW,3.5,-,N/A,,Mostly Cloudy,220,2012-12-14 07:52:00